Ramenskoye Airport
UUBW : now visible

Airfield :
LOGIN :

Register | Disclaimer

   EN    FR    IT 

 










Legend :    VFR   Marginal VFR   IFR   Intensive IFR   Very Intensive IFR
Visi :
Ceiling :
>= 8 km
>= 3000ft
5 to 8 km
1000 to 3000 ft
1500m to 5 km
500 to 1000 ft
800 to 1500m
200 to 500 ft
< 800m
< 200 ft
Symbols :   Thunderstorms  Fog  Heavy snow  Heavy precipitations  Wind > 20 kt
SIGMETs :     Misc.  Thunderstorms  Icing  Turbulence  Mountain Waves  Volcanic Ashes







- Airport Elevation : 377 ft


UUBW - Ramenskoye

CURRENT METAR :
  • 152130Z 27005MPS 9999 SCT025 03/M00 Q1010 R30/110055 NOSIG

EXPIRED METARs :
  • 152100Z 27005MPS 9999 SCT025 03/M00 Q1010 R30/110055 NOSIG
  • 152030Z 27005MPS 9999 SCT029 03/M01 Q1010 R30/110055 NOSIG
  • 152000Z 27005MPS 9999 SCT023 03/M00 Q1010 R30/110055 NOSIG
  • 151930Z 28005MPS 9999 SCT025 03/M00 Q1010 R30/110055 NOSIG
  • 151900Z 28006MPS 9999 BKN038 03/M00 Q1011 R30/110055 NOSIG

TAF TAF UUBW
Valid from the 15 at 21:00 until the 16 at 21:00 UTC


151957Z 1521/1621 30006MPS 8000 FEW005 BKN011 TX03/1521Z TNM00/1603Z
PROB40
TEMPO 1603/1609 -FZDZ OVC004
BECMG 1616/1618 24006MPS
TEMPO 1618/1621 3100 -SN -FZDZ OVC007
No reported NOTAMs for that airfield.



MET'MAP, your aeronautical weather chart ! - Copyright ORBIFLY December 2007 - Disclaimer

ORBIFLY MET'MAP TEAM :

Programming & Development : Alexandra Zaïnal
Concept & Development : Baudouin d'Aumeries
Co-Development & Prog : Marc-Olivier Méhu
Technical & hardware support : Manuel Goepfert

Contact : metmap@orbifly.com




SOURCES & CREDITS :

   NOAA